Time;durP1;ratioP1;P1;durP2;ratioP2;P2;SDS_P1;SDS_P2;PMS_P1;PMS_P2;Temp;Humidity;BMP_temperature;BMP_pressure;BME280_temperature;BME280_humidity;BME280_pressure;Samples;Min_cycle;Max_cycle;Signal;HPM_P1;HPM_P2
2023/10/06 00:01:48;;;;;;;7.13;3.42;;;15.90;99.90;;;;;;5084335;28;20075;-82
2023/10/06 00:04:15;;;;;;;7.22;3.30;;;15.90;99.90;;;;;;5117426;28;20020;-80
2023/10/06 00:06:43;;;;;;;5.05;3.03;;;15.90;99.90;;;;;;5113405;28;20024;-81
2023/10/06 00:09:28;;;;;;;4.93;3.22;;;15.90;99.90;;;;;;5100363;28;20027;-79
2023/10/06 00:11:55;;;;;;;6.35;3.40;;;15.90;99.90;;;;;;5061288;28;20127;-83
2023/10/06 00:14:39;;;;;;;7.35;3.70;;;15.80;99.90;;;;;;5093547;28;20027;-83
2023/10/06 00:17:09;;;;;;;7.57;3.40;;;15.80;99.90;;;;;;5093763;28;20027;-83
2023/10/06 00:19:37;;;;;;;6.28;3.13;;;15.80;99.90;;;;;;5075275;28;20024;-83
2023/10/06 00:24:37;;;;;;;6.45;3.67;;;15.80;99.90;;;;;;5084368;28;20112;-83
2023/10/06 00:27:03;;;;;;;4.75;2.83;;;15.80;99.90;;;;;;5039003;28;20058;-83
2023/10/06 00:29:29;;;;;;;7.90;3.85;;;15.80;99.90;;;;;;5084618;28;20024;-83
2023/10/06 00:32:02;;;;;;;6.60;3.03;;;15.80;99.90;;;;;;5075229;28;20028;-83
2023/10/06 00:34:34;;;;;;;5.95;3.33;;;15.80;99.90;;;;;;5067788;28;20045;-83
2023/10/06 00:37:02;;;;;;;4.97;3.13;;;15.80;99.90;;;;;;5065962;28;20024;-83
2023/10/06 00:39:30;;;;;;;5.68;3.78;;;15.80;99.90;;;;;;5059053;28;20092;-83
2023/10/06 00:41:59;;;;;;;5.80;3.45;;;15.70;99.90;;;;;;5074901;28;20024;-83
2023/10/06 00:44:25;;;;;;;10.20;4.13;;;15.80;99.90;;;;;;5075386;28;20024;-83
2023/10/06 00:46:52;;;;;;;7.15;3.75;;;15.70;99.90;;;;;;5067502;28;20028;-83
2023/10/06 00:49:19;;;;;;;7.18;3.70;;;15.70;99.90;;;;;;5060852;28;20028;-83
2023/10/06 00:51:47;;;;;;;7.57;3.42;;;15.70;99.90;;;;;;5050802;28;20120;-83
2023/10/06 00:54:13;;;;;;;5.93;3.83;;;15.70;99.90;;;;;;5058592;28;20051;-83
2023/10/06 00:56:39;;;;;;;5.80;3.88;;;15.70;99.90;;;;;;5059675;28;20088;-83
2023/10/06 00:59:05;;;;;;;5.07;3.50;;;15.70;99.90;;;;;;5055369;28;20017;-83
2023/10/06 01:01:34;;;;;;;6.15;3.50;;;15.70;99.90;;;;;;5045964;28;20024;-83
2023/10/06 01:04:10;;;;;;;7.68;3.70;;;15.70;99.90;;;;;;5057396;28;20085;-83
2023/10/06 01:06:38;;;;;;;5.72;3.30;;;15.70;99.90;;;;;;5068007;28;20016;-83
2023/10/06 01:09:14;;;;;;;5.85;3.67;;;15.70;99.90;;;;;;5076695;28;20016;-83
2023/10/06 01:11:51;;;;;;;6.75;3.33;;;15.70;99.90;;;;;;5058593;28;20057;-83
2023/10/06 01:14:27;;;;;;;7.13;3.38;;;15.70;99.90;;;;;;5064515;28;20042;-83
2023/10/06 01:17:14;;;;;;;5.28;3.80;;;15.70;99.90;;;;;;5078577;28;20078;-83
2023/10/06 01:19:47;;;;;;;4.57;3.28;;;15.60;99.90;;;;;;5065853;28;20040;-84
2023/10/06 01:25:19;;;;;;;8.70;3.53;;;15.60;99.90;;;;;;5060481;28;20056;-83
2023/10/06 01:27:44;;;;;;;6.13;3.72;;;15.60;99.90;;;;;;5043262;28;20040;-83
2023/10/06 01:30:17;;;;;;;5.70;3.45;;;15.60;99.90;;;;;;5058246;28;20036;-83
2023/10/06 01:32:44;;;;;;;5.53;3.60;;;15.60;99.90;;;;;;5096849;28;20032;-83
2023/10/06 01:35:18;;;;;;;8.32;3.90;;;15.60;99.90;;;;;;5073880;28;20131;-83
2023/10/06 01:37:45;;;;;;;7.50;3.95;;;15.60;99.90;;;;;;5066979;28;20032;-83
2023/10/06 01:42:49;;;;;;;7.35;3.60;;;15.60;99.90;;;;;;5066446;28;20059;-84
2023/10/06 01:45:17;;;;;;;7.88;3.67;;;15.60;99.90;;;;;;5082878;28;20013;-82
2023/10/06 01:47:43;;;;;;;6.65;3.90;;;15.60;99.90;;;;;;5066678;28;20012;-83
2023/10/06 01:50:09;;;;;;;7.57;4.03;;;15.60;99.90;;;;;;5087240;28;20033;-83
2023/10/06 01:52:39;;;;;;;7.82;3.53;;;15.60;99.90;;;;;;5059276;28;20023;-83
2023/10/06 01:55:09;;;;;;;6.07;3.50;;;15.60;99.90;;;;;;5051338;28;20048;-83
2023/10/06 01:57:35;;;;;;;6.47;3.78;;;15.60;99.90;;;;;;5064597;28;20024;-83
2023/10/06 02:00:01;;;;;;;6.68;3.53;;;15.60;99.90;;;;;;5058122;28;20032;-83
2023/10/06 02:02:28;;;;;;;7.93;3.97;;;15.50;99.90;;;;;;5057959;28;20173;-83
2023/10/06 02:04:57;;;;;;;9.00;3.78;;;15.50;99.90;;;;;;5055034;28;20503;-83
2023/10/06 02:07:22;;;;;;;5.30;3.45;;;15.50;99.90;;;;;;5077849;28;20039;-83
2023/10/06 02:09:49;;;;;;;7.05;3.78;;;15.50;99.90;;;;;;5060901;28;20036;-84
2023/10/06 02:12:15;;;;;;;5.68;3.58;;;15.50;99.90;;;;;;5064999;28;20028;-83
2023/10/06 02:14:41;;;;;;;6.97;3.30;;;15.50;99.90;;;;;;5048265;28;20456;-83
2023/10/06 02:17:08;;;;;;;9.00;4.18;;;15.50;99.90;;;;;;5040691;28;20035;-83
2023/10/06 02:19:34;;;;;;;5.53;3.45;;;15.50;99.90;;;;;;5052080;28;20507;-83
2023/10/06 02:22:00;;;;;;;8.00;4.03;;;15.40;99.90;;;;;;5043684;28;20024;-83
2023/10/06 02:24:26;;;;;;;8.18;3.42;;;15.40;99.90;;;;;;5072294;28;20027;-83
2023/10/06 02:27:00;;;;;;;8.38;3.45;;;15.40;99.90;;;;;;5092539;28;20386;-83
2023/10/06 02:29:26;;;;;;;4.88;2.97;;;15.40;99.90;;;;;;5064758;28;20028;-83
2023/10/06 02:32:06;;;;;;;6.00;3.33;;;15.40;99.90;;;;;;5052912;28;20450;-82
2023/10/06 02:34:40;;;;;;;7.40;3.90;;;15.40;99.90;;;;;;5079129;28;20044;-83
2023/10/06 02:37:07;;;;;;;9.13;4.18;;;15.40;99.90;;;;;;5051331;28;20056;-83
2023/10/06 02:39:43;;;;;;;6.10;2.95;;;15.40;99.90;;;;;;5056235;28;20032;-83
2023/10/06 02:42:09;;;;;;;6.18;3.13;;;15.40;99.90;;;;;;5057052;28;20031;-83
2023/10/06 02:44:40;;;;;;;6.88;3.30;;;15.40;99.90;;;;;;5056526;28;20089;-83
2023/10/06 02:47:09;;;;;;;;;;;15.40;99.90;;;;;;5061407;28;20024;-83
2023/10/06 02:49:37;;;;;;;6.55;3.30;;;15.40;99.90;;;;;;5056104;28;19962;-83
2023/10/06 02:52:13;;;;;;;6.13;3.20;;;15.30;99.90;;;;;;5039895;28;20039;-82
2023/10/06 02:54:45;;;;;;;7.03;2.90;;;15.30;99.90;;;;;;5093834;28;20058;-83
2023/10/06 02:57:11;;;;;;;5.30;3.20;;;15.30;99.90;;;;;;5093656;28;20069;-83
2023/10/06 02:59:36;;;;;;;6.25;3.65;;;15.30;99.90;;;;;;5078278;28;20024;-83
2023/10/06 03:02:15;;;;;;;6.20;3.47;;;15.30;99.90;;;;;;5056700;28;20028;-82
2023/10/06 03:04:43;;;;;;;5.28;3.38;;;15.30;99.90;;;;;;5027260;28;20036;-83
2023/10/06 03:07:14;;;;;;;6.43;3.50;;;15.30;99.90;;;;;;5061098;28;20032;-82
2023/10/06 03:09:45;;;;;;;4.88;2.90;;;15.30;99.90;;;;;;5056989;28;20028;-83
2023/10/06 03:14:50;;;;;;;5.90;3.35;;;15.30;99.90;;;;;;5079125;28;20043;-82
2023/10/06 03:17:19;;;;;;;4.90;3.15;;;15.20;99.90;;;;;;5059687;28;20052;-83
2023/10/06 03:19:56;;;;;;;6.25;3.40;;;15.20;99.90;;;;;;5085278;28;20032;-82
2023/10/06 03:22:23;;;;;;;5.07;3.17;;;15.20;99.90;;;;;;5076830;28;20460;-83
2023/10/06 03:25:01;;;;;;;5.85;3.38;;;15.20;99.90;;;;;;5095777;28;20024;-83
2023/10/06 03:27:26;;;;;;;4.78;3.17;;;15.20;99.90;;;;;;5086853;28;20012;-83
2023/10/06 03:30:07;;;;;;;8.00;3.70;;;15.20;99.90;;;;;;5118858;28;20036;-80
2023/10/06 03:32:33;;;;;;;5.05;3.00;;;15.20;99.90;;;;;;5117842;28;20032;-81
2023/10/06 03:35:06;;;;;;;5.88;3.20;;;15.20;99.90;;;;;;5080821;28;20039;-83
2023/10/06 03:37:36;;;;;;;6.20;3.17;;;15.20;99.90;;;;;;5087556;28;20027;-82
2023/10/06 03:40:22;;;;;;;5.28;3.05;;;15.20;99.90;;;;;;5053830;28;20565;-83
2023/10/06 03:42:48;;;;;;;4.82;3.25;;;15.20;99.90;;;;;;5076430;28;20024;-83
2023/10/06 03:45:23;;;;;;;5.68;3.40;;;15.20;99.90;;;;;;5055809;28;20051;-83
2023/10/06 03:47:49;;;;;;;6.03;3.28;;;15.20;99.90;;;;;;5061079;28;20078;-83
2023/10/06 03:50:17;;;;;;;5.53;3.45;;;15.20;99.90;;;;;;5032329;28;20468;-83
2023/10/06 03:52:43;;;;;;;7.40;3.53;;;15.20;99.90;;;;;;5057907;28;20028;-83
2023/10/06 03:55:12;;;;;;;6.15;3.20;;;15.10;99.90;;;;;;5089950;28;20032;-83
2023/10/06 03:57:37;;;;;;;7.30;4.00;;;15.10;99.90;;;;;;5039572;28;20016;-83
2023/10/06 04:00:05;;;;;;;6.07;3.60;;;15.10;99.90;;;;;;5060854;28;20422;-83
2023/10/06 04:02:38;;;;;;;4.40;2.90;;;15.10;99.90;;;;;;5043769;28;20036;-83
2023/10/06 04:05:07;;;;;;;5.03;3.08;;;15.10;99.90;;;;;;5056678;28;20040;-83
2023/10/06 04:07:33;;;;;;;6.90;3.30;;;15.10;99.90;;;;;;5075667;28;20028;-83
2023/10/06 04:10:03;;;;;;;6.95;3.60;;;15.10;99.90;;;;;;5042197;28;20039;-83
2023/10/06 04:12:29;;;;;;;6.47;3.13;;;15.10;99.90;;;;;;5059511;28;20062;-83
2023/10/06 04:14:54;;;;;;;5.93;3.72;;;15.10;99.90;;;;;;5069411;28;20060;-83
2023/10/06 04:17:22;;;;;;;6.18;3.20;;;15.10;99.90;;;;;;5038604;28;20052;-83
2023/10/06 04:19:57;;;;;;;5.97;3.17;;;15.10;99.90;;;;;;5055674;28;20055;-82
2023/10/06 04:22:23;;;;;;;5.20;3.22;;;15.10;99.90;;;;;;5059300;28;20032;-82
2023/10/06 04:24:48;;;;;;;6.50;3.53;;;15.10;99.90;;;;;;5075461;28;20376;-83
2023/10/06 04:27:14;;;;;;;8.73;3.63;;;15.10;99.90;;;;;;5058387;28;20028;-82
2023/10/06 04:29:40;;;;;;;5.25;2.83;;;15.10;99.90;;;;;;5075431;28;20085;-83
2023/10/06 04:32:08;;;;;;;7.78;3.40;;;15.10;99.90;;;;;;5040468;28;20113;-82
2023/10/06 04:34:36;;;;;;;6.72;3.38;;;15.10;99.90;;;;;;5031201;28;20045;-82
2023/10/06 04:37:03;;;;;;;6.40;3.08;;;15.10;99.90;;;;;;5038701;28;20037;-83
2023/10/06 04:39:29;;;;;;;5.43;2.88;;;15.10;99.90;;;;;;5059103;28;20032;-82
2023/10/06 04:41:59;;;;;;;4.50;2.90;;;15.10;99.90;;;;;;5051193;28;20392;-82
2023/10/06 04:44:24;;;;;;;5.57;3.17;;;15.10;99.90;;;;;;5051734;28;20061;-82
2023/10/06 04:46:50;;;;;;;4.93;2.80;;;15.10;99.90;;;;;;5058184;28;20023;-82
2023/10/06 04:49:16;;;;;;;5.32;2.72;;;15.00;99.90;;;;;;5049643;28;20426;-82
2023/10/06 04:51:41;;;;;;;5.95;3.15;;;15.10;99.90;;;;;;5055561;28;20475;-82
2023/10/06 04:54:08;;;;;;;5.88;3.03;;;15.10;99.90;;;;;;5033633;28;20460;-82
2023/10/06 04:56:33;;;;;;;5.85;3.38;;;15.10;99.90;;;;;;5045331;28;20468;-82
2023/10/06 04:58:59;;;;;;;7.22;3.78;;;15.10;99.90;;;;;;5044939;28;20115;-82
2023/10/06 05:01:30;;;;;;;5.82;3.45;;;15.10;99.90;;;;;;5066201;28;20033;-81
2023/10/06 05:03:55;;;;;;;5.97;3.80;;;15.10;99.90;;;;;;5079825;28;20455;-82
2023/10/06 05:06:21;;;;;;;5.20;3.40;;;15.10;99.90;;;;;;5079476;28;20025;-81
2023/10/06 05:08:48;;;;;;;5.28;3.05;;;15.10;99.90;;;;;;5066588;28;20036;-81
2023/10/06 05:11:19;;;;;;;6.93;3.83;;;15.10;99.90;;;;;;5086433;28;20031;-82
2023/10/06 05:13:47;;;;;;;6.37;3.30;;;15.00;99.90;;;;;;5120058;28;20035;-81
2023/10/06 05:16:13;;;;;;;7.18;3.50;;;15.00;99.90;;;;;;5089239;28;20297;-83
2023/10/06 05:18:39;;;;;;;6.68;3.28;;;15.00;99.90;;;;;;5085629;28;20029;-82
2023/10/06 05:21:08;;;;;;;5.47;3.97;;;15.00;99.90;;;;;;5043038;28;20353;-81
2023/10/06 05:23:35;;;;;;;5.30;3.40;;;15.00;99.90;;;;;;5058511;28;20028;-81
2023/10/06 05:26:07;;;;;;;5.70;3.90;;;15.00;99.90;;;;;;5081595;28;20392;-81
2023/10/06 05:28:34;;;;;;;5.20;3.38;;;15.00;99.90;;;;;;5065889;28;20393;-81
2023/10/06 05:30:59;;;;;;;8.73;3.90;;;15.00;99.90;;;;;;5041844;28;20032;-82
2023/10/06 05:33:25;;;;;;;4.55;3.40;;;15.00;99.90;;;;;;5029275;28;20016;-81
2023/10/06 05:35:51;;;;;;;6.05;3.50;;;15.00;99.90;;;;;;5096103;28;20492;-81
2023/10/06 05:38:17;;;;;;;7.30;3.80;;;15.00;99.90;;;;;;5091807;28;20021;-82
2023/10/06 05:40:44;;;;;;;7.43;4.78;;;15.00;99.90;;;;;;5041506;28;20096;-82
2023/10/06 05:43:15;;;;;;;7.60;5.03;;;15.00;99.90;;;;;;5070415;28;20028;-82
2023/10/06 05:45:42;;;;;;;10.40;6.05;;;15.00;99.90;;;;;;5079460;28;20044;-81
2023/10/06 05:48:12;;;;;;;11.32;6.13;;;15.00;99.90;;;;;;5095781;28;20028;-81
2023/10/06 05:50:40;;;;;;;7.65;5.53;;;15.00;99.90;;;;;;5061403;28;20032;-82
2023/10/06 05:53:17;;;;;;;9.02;5.90;;;15.00;99.90;;;;;;5077741;28;20043;-82
2023/10/06 05:55:43;;;;;;;7.10;5.13;;;15.00;99.90;;;;;;5079957;28;20062;-81
2023/10/06 05:58:14;;;;;;;6.10;4.70;;;15.00;99.90;;;;;;5051043;28;20410;-81
2023/10/06 06:00:50;;;;;;;;;;;15.00;99.90;;;;;;5076495;28;20028;-81
2023/10/06 06:03:20;;;;;;;9.32;5.10;;;15.00;99.90;;;;;;5061089;28;19916;-82
2023/10/06 06:05:53;;;;;;;4.90;3.75;;;15.00;99.90;;;;;;5058190;28;20036;-82
2023/10/06 06:08:22;;;;;;;5.75;3.47;;;15.00;99.90;;;;;;5077444;28;20056;-82
2023/10/06 06:10:48;;;;;;;7.05;3.75;;;15.00;99.90;;;;;;5077542;28;20024;-82
2023/10/06 06:13:14;;;;;;;6.40;3.35;;;15.00;99.90;;;;;;5077346;28;20028;-82
2023/10/06 06:15:41;;;;;;;7.10;3.50;;;15.00;99.90;;;;;;5095604;28;20017;-82
2023/10/06 06:18:08;;;;;;;5.13;3.45;;;15.00;99.90;;;;;;5077537;28;20166;-82
2023/10/06 06:20:38;;;;;;;6.38;3.30;;;15.10;99.90;;;;;;5057057;28;20036;-82
2023/10/06 06:23:05;;;;;;;5.30;3.13;;;15.00;99.90;;;;;;5044432;28;20172;-82
2023/10/06 06:25:31;;;;;;;5.75;3.03;;;15.00;99.90;;;;;;5070088;28;20024;-81
2023/10/06 06:27:59;;;;;;;4.03;2.85;;;15.10;99.90;;;;;;5077353;28;20040;-81
2023/10/06 06:30:26;;;;;;;8.40;3.55;;;15.00;99.90;;;;;;5044322;28;20032;-81
2023/10/06 06:32:53;;;;;;;5.38;2.78;;;15.10;99.90;;;;;;5095662;28;20031;-81
2023/10/06 06:35:21;;;;;;;5.95;2.97;;;15.10;99.90;;;;;;5073589;28;20044;-83
2023/10/06 06:37:52;;;;;;;5.90;2.85;;;15.10;99.90;;;;;;5066357;28;20427;-82
2023/10/06 06:40:21;;;;;;;5.88;2.95;;;15.10;99.90;;;;;;5073259;28;20024;-82
2023/10/06 06:42:48;;;;;;;5.00;2.90;;;15.10;99.90;;;;;;5056385;28;20028;-81
2023/10/06 06:45:14;;;;;;;6.82;2.80;;;15.10;99.90;;;;;;5055857;28;20025;-81
2023/10/06 06:47:44;;;;;;;8.35;3.05;;;15.10;99.90;;;;;;5042373;28;20053;-82
2023/10/06 06:50:13;;;;;;;7.38;3.33;;;15.20;99.90;;;;;;5072325;28;20056;-82
2023/10/06 06:52:41;;;;;;;5.38;2.70;;;15.20;99.90;;;;;;5091421;28;20024;-82
2023/10/06 06:55:13;;;;;;;6.15;2.95;;;15.20;99.90;;;;;;5076512;28;20032;-79
2023/10/06 06:57:48;;;;;;;5.18;2.92;;;15.20;99.90;;;;;;5074169;28;20096;-80
2023/10/06 07:00:21;;;;;;;5.70;2.90;;;15.20;99.90;;;;;;5060070;28;20029;-82
2023/10/06 07:02:50;;;;;;;4.38;2.88;;;15.30;99.90;;;;;;5038170;28;20086;-81
2023/10/06 07:05:18;;;;;;;6.35;2.95;;;15.30;99.90;;;;;;5056074;28;20021;-81
2023/10/06 07:07:44;;;;;;;4.88;3.00;;;15.30;99.90;;;;;;5057080;28;20029;-81
2023/10/06 07:10:15;;;;;;;6.60;2.67;;;15.30;99.90;;;;;;5069403;28;20131;-81
2023/10/06 07:12:51;;;;;;;7.70;3.22;;;15.30;99.90;;;;;;5074338;28;20027;-81
2023/10/06 07:15:21;;;;;;;5.60;3.15;;;15.30;99.90;;;;;;5074123;28;20024;-81
2023/10/06 07:17:54;;;;;;;5.00;2.83;;;15.30;99.90;;;;;;5074014;28;20481;-81
2023/10/06 07:20:27;;;;;;;5.60;3.17;;;15.30;99.90;;;;;;5072828;28;20029;-81
2023/10/06 07:22:53;;;;;;;6.10;2.60;;;15.30;99.90;;;;;;5057494;28;20058;-81
2023/10/06 07:25:20;;;;;;;4.53;2.85;;;15.30;99.90;;;;;;5070954;28;20066;-81
2023/10/06 07:27:48;;;;;;;6.68;2.83;;;15.30;99.90;;;;;;5037060;28;20025;-83
2023/10/06 07:30:14;;;;;;;5.53;2.80;;;15.40;99.90;;;;;;5052308;28;20433;-82
2023/10/06 07:32:42;;;;;;;5.00;3.03;;;15.40;99.90;;;;;;5061500;28;20524;-82
2023/10/06 07:35:13;;;;;;;6.18;2.85;;;15.40;99.90;;;;;;5072298;28;20122;-82
2023/10/06 07:37:43;;;;;;;7.13;3.03;;;15.40;99.90;;;;;;5062059;28;20477;-82
2023/10/06 07:40:13;;;;;;;6.97;2.97;;;15.40;99.90;;;;;;5052683;28;20115;-82
2023/10/06 07:42:50;;;;;;;6.22;2.75;;;15.40;99.90;;;;;;5041942;28;20039;-82
2023/10/06 07:45:16;;;;;;;4.15;2.72;;;15.50;99.90;;;;;;5079088;28;20457;-84
2023/10/06 07:47:42;;;;;;;4.95;2.78;;;15.50;99.90;;;;;;5035899;28;20037;-82
2023/10/06 07:50:09;;;;;;;6.15;3.10;;;15.60;99.90;;;;;;5035995;28;20061;-82
2023/10/06 07:52:36;;;;;;;4.80;2.78;;;15.60;99.90;;;;;;5043816;28;20084;-82
2023/10/06 07:55:05;;;;;;;4.28;2.60;;;15.60;99.90;;;;;;5072233;28;20032;-82
2023/10/06 07:57:32;;;;;;;4.35;2.75;;;15.70;99.90;;;;;;5071960;28;20369;-82
2023/10/06 08:00:06;;;;;;;5.05;3.08;;;15.70;99.90;;;;;;5052450;28;20106;-82
2023/10/06 08:02:32;;;;;;;6.20;2.95;;;15.80;99.90;;;;;;5052063;28;20036;-82
2023/10/06 08:04:59;;;;;;;7.13;3.00;;;15.80;99.90;;;;;;5063620;28;20374;-81
2023/10/06 08:07:28;;;;;;;5.82;2.85;;;15.80;99.90;;;;;;5035921;28;20079;-82
2023/10/06 08:09:58;;;;;;;4.60;2.88;;;15.90;99.90;;;;;;5035953;28;20027;-82
2023/10/06 08:12:24;;;;;;;4.15;2.80;;;16.00;99.90;;;;;;5052159;28;20032;-83
2023/10/06 08:14:50;;;;;;;7.38;3.00;;;16.00;99.90;;;;;;5035865;28;20128;-82
2023/10/06 08:17:19;;;;;;;5.95;2.70;;;16.00;99.90;;;;;;5040489;28;20021;-82
2023/10/06 08:19:46;;;;;;;6.60;3.13;;;16.10;99.90;;;;;;5072317;28;20025;-82
2023/10/06 08:22:12;;;;;;;5.40;2.67;;;16.10;99.90;;;;;;5068884;28;20024;-83
2023/10/06 08:24:38;;;;;;;8.52;3.22;;;16.20;99.90;;;;;;5048677;28;20098;-82
2023/10/06 08:27:06;;;;;;;8.13;2.92;;;16.20;99.90;;;;;;5054724;28;20021;-83
2023/10/06 08:29:34;;;;;;;8.02;2.83;;;16.30;99.90;;;;;;5075933;28;20040;-82
2023/10/06 08:32:02;;;;;;;3.88;2.40;;;16.40;99.90;;;;;;5062550;28;20036;-82
2023/10/06 08:34:29;;;;;;;7.13;3.13;;;16.40;99.90;;;;;;5090362;28;20060;-82
2023/10/06 08:36:55;;;;;;;6.05;2.90;;;16.50;99.90;;;;;;5078810;28;20020;-82
2023/10/06 08:39:38;;;;;;;4.40;2.70;;;16.60;99.90;;;;;;5061265;28;20016;-81
2023/10/06 08:42:06;;;;;;;7.15;2.80;;;16.60;99.90;;;;;;5076041;28;20036;-80
2023/10/06 08:44:36;;;;;;;4.68;3.10;;;16.70;99.90;;;;;;5093161;28;20024;-82
2023/10/06 08:47:02;;;;;;;4.03;2.42;;;16.70;99.90;;;;;;5074094;28;20024;-82
2023/10/06 08:49:29;;;;;;;5.43;3.00;;;16.80;99.90;;;;;;5038980;28;20059;-82
2023/10/06 08:51:57;;;;;;;6.40;3.20;;;16.80;99.90;;;;;;5075166;28;20129;-81
2023/10/06 08:54:24;;;;;;;5.82;2.92;;;16.90;99.90;;;;;;5075463;28;20040;-82
2023/10/06 08:56:50;;;;;;;5.80;2.58;;;16.90;99.90;;;;;;5092515;28;20032;-82
2023/10/06 08:59:16;;;;;;;5.78;2.70;;;17.00;99.90;;;;;;5045437;28;20056;-82
2023/10/06 09:01:45;;;;;;;5.88;2.78;;;17.00;99.90;;;;;;5054057;28;20507;-82
2023/10/06 09:04:14;;;;;;;5.28;2.78;;;17.10;99.90;;;;;;5073041;28;20025;-82
2023/10/06 09:07:06;;;;;;;4.53;2.78;;;17.20;99.90;;;;;;5054589;28;20036;-82
2023/10/06 09:09:32;;;;;;;5.70;2.72;;;17.20;99.90;;;;;;5038480;28;20021;-82
2023/10/06 09:11:58;;;;;;;5.03;2.60;;;17.30;99.90;;;;;;5073212;28;20040;-82
2023/10/06 09:14:25;;;;;;;5.57;2.92;;;17.30;99.90;;;;;;5042941;28;20094;-82
2023/10/06 09:16:51;;;;;;;4.95;2.55;;;17.40;99.90;;;;;;5054959;28;20028;-82
2023/10/06 09:19:18;;;;;;;4.45;2.47;;;17.50;99.90;;;;;;5063657;28;20077;-82
2023/10/06 09:22:10;;;;;;;4.30;2.42;;;17.50;99.90;;;;;;5092765;28;20036;-82
2023/10/06 09:24:36;;;;;;;5.38;2.38;;;17.60;99.90;;;;;;5065959;28;20131;-82
2023/10/06 09:27:19;;;;;;;4.22;2.20;;;17.60;99.90;;;;;;5044810;28;20036;-82
2023/10/06 09:29:45;;;;;;;5.03;2.58;;;17.70;99.90;;;;;;5060849;28;20052;-82
2023/10/06 09:32:20;;;;;;;3.92;2.50;;;17.70;99.90;;;;;;5067938;28;20055;-82
2023/10/06 09:34:46;;;;;;;6.25;2.80;;;17.80;99.90;;;;;;5078141;28;20052;-82
2023/10/06 09:37:21;;;;;;;5.45;2.30;;;17.80;99.90;;;;;;5061897;28;20028;-82
2023/10/06 09:39:58;;;;;;;4.57;2.90;;;17.80;99.90;;;;;;5058190;28;20357;-82
2023/10/06 09:42:29;;;;;;;5.53;2.63;;;17.90;99.90;;;;;;5059737;28;20028;-82
2023/10/06 09:45:20;;;;;;;5.85;2.63;;;17.90;99.90;;;;;;5094422;28;20095;-82
2023/10/06 09:47:49;;;;;;;5.35;2.20;;;18.00;99.90;;;;;;5075797;28;20379;-82
2023/10/06 09:50:19;;;;;;;7.70;2.83;;;18.00;99.90;;;;;;5058224;28;20076;-82
2023/10/06 09:52:47;;;;;;;6.25;3.00;;;18.10;99.90;;;;;;5059037;28;20426;-82
2023/10/06 09:55:15;;;;;;;5.18;2.60;;;18.10;99.90;;;;;;5074122;28;20024;-82
2023/10/06 09:57:43;;;;;;;4.80;2.38;;;18.10;99.90;;;;;;5058674;28;20025;-82
2023/10/06 10:00:16;;;;;;;6.20;2.60;;;18.10;99.90;;;;;;5077362;28;20035;-83
2023/10/06 10:02:47;;;;;;;6.45;2.60;;;18.10;99.90;;;;;;5063559;28;20016;-82
2023/10/06 10:05:14;;;;;;;6.28;2.85;;;18.10;99.90;;;;;;5070861;28;20075;-83
2023/10/06 10:07:41;;;;;;;8.35;2.53;;;18.20;99.90;;;;;;5058070;28;20031;-83
2023/10/06 10:10:11;;;;;;;4.38;2.05;;;18.20;99.90;;;;;;5068114;28;20119;-83
2023/10/06 10:12:49;;;;;;;6.90;2.70;;;18.30;99.90;;;;;;5078057;28;20039;-83
2023/10/06 10:15:46;;;;;;;5.43;2.53;;;18.30;99.90;;;;;;5078589;28;20020;-82
2023/10/06 10:18:40;;;;;;;7.55;2.92;;;18.40;99.90;;;;;;5071380;28;20093;-82
2023/10/06 10:21:11;;;;;;;4.72;2.63;;;18.40;99.90;;;;;;5067516;28;20024;-81
2023/10/06 10:23:40;;;;;;;;;;;18.40;99.90;;;;;;5096362;28;20020;-82
2023/10/06 10:26:23;;;;;;;6.70;2.75;;;18.40;99.80;;;;;;5094602;28;19911;-79
2023/10/06 10:29:24;;;;;;;5.65;2.97;;;18.40;99.80;;;;;;5081248;28;20020;-83
2023/10/06 10:31:56;;;;;;;7.80;2.92;;;18.40;99.70;;;;;;4992263;28;20051;-82
2023/10/06 10:34:27;;;;;;;4.00;2.20;;;18.50;99.70;;;;;;5072615;28;20083;-82
2023/10/06 10:36:56;;;;;;;;;;;18.60;99.70;;;;;;5036166;28;20028;-82
2023/10/06 10:39:24;;;;;;;4.38;2.40;;;18.60;99.70;;;;;;5075043;28;19937;-82
2023/10/06 10:41:58;;;;;;;4.63;2.40;;;18.70;99.80;;;;;;5060868;28;20028;-83
2023/10/06 10:44:24;;;;;;;4.15;2.35;;;18.70;99.70;;;;;;5077445;28;20391;-81
2023/10/06 10:46:52;;;;;;;4.60;2.70;;;18.80;99.60;;;;;;5060509;28;20028;-82
2023/10/06 10:49:22;;;;;;;4.47;2.72;;;18.80;99.50;;;;;;5088362;28;20020;-83
2023/10/06 10:51:48;;;;;;;6.05;2.85;;;18.80;99.50;;;;;;5075410;28;20025;-83
2023/10/06 10:54:21;;;;;;;5.18;2.10;;;19.00;99.50;;;;;;5069209;28;20036;-83
2023/10/06 10:56:51;;;;;;;5.30;2.45;;;19.00;99.50;;;;;;5086606;28;20027;-82
2023/10/06 10:59:17;;;;;;;7.53;2.70;;;19.10;99.70;;;;;;5060784;28;20032;-83
2023/10/06 11:01:44;;;;;;;4.50;2.55;;;19.10;99.30;;;;;;5056619;28;20036;-83
2023/10/06 11:04:18;;;;;;;5.65;2.55;;;19.10;99.20;;;;;;5054086;28;20074;-84
2023/10/06 11:06:46;;;;;;;4.57;2.20;;;19.10;99.20;;;;;;5071992;28;20013;-83
2023/10/06 11:09:25;;;;;;;4.85;2.30;;;19.10;99.20;;;;;;5043549;28;20032;-83
2023/10/06 11:11:51;;;;;;;3.95;2.20;;;19.10;99.10;;;;;;5076684;28;20082;-83
2023/10/06 11:14:17;;;;;;;7.22;3.15;;;19.20;99.10;;;;;;5059683;28;20115;-82
2023/10/06 11:16:46;;;;;;;4.43;2.30;;;19.20;98.90;;;;;;5094237;28;20091;-83
2023/10/06 11:19:16;;;;;;;3.90;2.00;;;19.20;98.80;;;;;;5066377;28;20024;-83
2023/10/06 11:21:53;;;;;;;3.97;2.33;;;19.20;98.90;;;;;;5056308;28;20028;-82
2023/10/06 11:24:26;;;;;;;3.83;1.90;;;19.20;98.80;;;;;;5061062;28;20012;-83
2023/10/06 11:26:52;;;;;;;5.72;2.00;;;19.20;98.70;;;;;;5076312;28;20032;-83
2023/10/06 11:29:31;;;;;;;5.50;2.20;;;19.20;98.70;;;;;;5066696;28;20480;-83
2023/10/06 11:32:01;;;;;;;7.30;2.50;;;19.30;98.70;;;;;;5039422;28;20395;-83
2023/10/06 11:34:29;;;;;;;3.58;2.10;;;19.30;98.70;;;;;;5040382;28;20113;-83
2023/10/06 11:36:59;;;;;;;4.15;2.33;;;19.30;98.60;;;;;;5057275;28;20036;-83
2023/10/06 11:39:31;;;;;;;3.55;2.08;;;19.40;98.60;;;;;;5089595;28;20039;-82
2023/10/06 11:42:27;;;;;;;4.97;2.35;;;19.40;98.60;;;;;;5093997;28;20056;-82
2023/10/06 11:44:54;;;;;;;4.30;2.45;;;19.50;98.60;;;;;;5073801;28;20028;-82
2023/10/06 11:47:24;;;;;;;3.67;2.28;;;19.50;98.40;;;;;;5073249;28;20024;-82
2023/10/06 11:50:05;;;;;;;4.93;2.40;;;19.50;98.40;;;;;;5056114;28;20032;-83
2023/10/06 11:52:31;;;;;;;3.63;2.20;;;19.50;98.40;;;;;;5040263;28;20306;-83
2023/10/06 11:55:02;;;;;;;3.92;1.98;;;19.50;98.40;;;;;;5044410;28;20024;-83
2023/10/06 11:57:47;;;;;;;4.43;2.42;;;19.60;98.50;;;;;;5076452;28;20020;-83
2023/10/06 12:00:19;;;;;;;5.65;2.30;;;19.60;98.40;;;;;;5078713;28;20106;-83
2023/10/06 12:02:50;;;;;;;5.28;2.70;;;19.60;98.40;;;;;;5094332;28;20020;-83
2023/10/06 12:05:19;;;;;;;;;;;19.60;98.40;;;;;;5076435;28;20372;-83
2023/10/06 12:07:51;;;;;;;5.38;2.47;;;19.70;98.40;;;;;;5076422;28;19905;-83
2023/10/06 12:10:19;;;;;;;4.03;2.35;;;19.60;98.30;;;;;;5076043;28;20119;-83
2023/10/06 12:12:49;;;;;;;6.07;2.58;;;19.70;98.40;;;;;;5099845;28;20024;-83
2023/10/06 12:15:15;;;;;;;5.80;2.95;;;19.70;98.30;;;;;;5100816;28;20004;-83
2023/10/06 12:17:42;;;;;;;5.45;2.97;;;19.80;98.30;;;;;;5115870;28;20024;-81
2023/10/06 12:20:18;;;;;;;5.40;2.88;;;19.80;98.30;;;;;;5097414;28;20036;-84
2023/10/06 12:22:45;;;;;;;7.95;2.90;;;19.80;98.20;;;;;;5115529;28;20017;-82
2023/10/06 12:25:14;;;;;;;6.85;3.03;;;19.90;98.20;;;;;;5058843;28;20020;-83
2023/10/06 12:27:43;;;;;;;5.95;2.63;;;19.90;98.10;;;;;;5063734;28;20016;-83
2023/10/06 12:30:13;;;;;;;3.58;2.30;;;19.90;98.10;;;;;;5075578;28;20115;-83
2023/10/06 12:32:38;;;;;;;5.47;2.67;;;19.90;98.00;;;;;;5059331;28;20384;-83
2023/10/06 12:35:08;;;;;;;9.32;2.38;;;19.90;98.00;;;;;;5057044;28;20055;-84
2023/10/06 12:37:43;;;;;;;4.75;2.70;;;19.90;97.90;;;;;;5073162;28;20040;-83
2023/10/06 12:40:09;;;;;;;4.05;2.63;;;19.90;97.90;;;;;;5055090;28;20032;-83
2023/10/06 12:42:39;;;;;;;4.25;2.70;;;19.80;97.80;;;;;;5087725;28;20056;-82
2023/10/06 12:45:12;;;;;;;5.20;2.53;;;19.80;97.80;;;;;;5075055;28;20023;-83
2023/10/06 12:47:38;;;;;;;5.32;2.97;;;19.80;97.70;;;;;;5043114;28;20376;-83
2023/10/06 12:50:05;;;;;;;4.75;2.67;;;19.80;97.80;;;;;;5074789;28;20027;-83
2023/10/06 12:52:40;;;;;;;4.20;2.67;;;19.80;97.80;;;;;;5058687;28;20025;-83
2023/10/06 12:55:10;;;;;;;5.03;2.63;;;19.90;97.90;;;;;;5055793;28;20028;-83
2023/10/06 12:57:38;;;;;;;4.28;2.30;;;19.90;97.80;;;;;;5074849;28;20387;-83
2023/10/06 13:00:04;;;;;;;5.55;2.88;;;19.90;97.70;;;;;;5096019;28;20055;-83
2023/10/06 13:02:32;;;;;;;5.82;2.50;;;19.90;97.80;;;;;;5062391;28;20020;-82
2023/10/06 13:05:07;;;;;;;5.13;2.67;;;19.90;97.70;;;;;;5062721;28;20123;-83
2023/10/06 13:07:33;;;;;;;5.55;2.97;;;19.90;98.00;;;;;;5080600;28;20024;-83
2023/10/06 13:10:01;;;;;;;7.53;3.03;;;19.90;97.70;;;;;;5096631;28;20028;-83
2023/10/06 13:12:28;;;;;;;7.22;3.00;;;19.90;97.70;;;;;;5071773;28;20036;-83